Item Display Status Serial CT Sensor

Mooring Depth: 1 m

 

Deployed Sensor

  • Serial Number: 3665
  • NDBC Property Number: 31972
  • Start Date: 11/16/2018 (15:05:13 Z)
  • End Date: Currently Active
Water Temperature [°C]     6 entries per hour
Showing data from 8/25/2019 (11:10:00 Z) to 8/24/2019 (00:00:01 Z)
Previous Next [ Day | 3-Days | 7-Days ]
First Last
Prev [ Day | 3-Days | 7-Days ] Next
First Last

Start Time:     :
End Time:     :     
Time (in GMT) :00 :50 :40 :30 :20 :10
Previous Next [ Day | 3-Days | 7-Days ]
First Last
Prev [ Day | 3-Days | 7-Days ] Next
First Last


123 => good data
MM => data is determined as missing
-- => data not received/configured
Back to Top Back to Top
8/25/2019 12:00 to 11:10 -- -- -- -- -- 27.639
8/25/2019 11:00 to 10:10 27.647 27.636 27.645 27.645 27.639 27.635
8/25/2019 10:00 to 9:10 27.642 27.641 27.643 27.642 27.646 27.643
8/25/2019 09:00 to 8:10 27.647 27.635 27.639 27.645 27.644 27.653
8/25/2019 08:00 to 7:10 27.647 27.646 27.642 27.650 27.651 27.643
8/25/2019 07:00 to 6:10 27.658 27.651 27.647 27.648 27.658 27.660
8/25/2019 06:00 to 5:10 27.661 27.650 27.650 27.661 27.657 27.667
8/25/2019 05:00 to 4:10 27.672 27.666 27.679 27.686 27.677 27.688
8/25/2019 04:00 to 3:10 27.682 27.690 27.695 27.698 27.698 27.703
8/25/2019 03:00 to 2:10 27.703 27.711 27.704 27.711 27.721 27.720
8/25/2019 02:00 to 1:10 27.719 27.726 27.728 27.715 27.739 27.741
8/25/2019 01:00 to 0:10 27.734 27.741 27.729 27.727 27.731 27.734
8/25/2019 00:00 to 23:10 27.740 27.742 27.732 27.737 27.741 27.749
8/24/2019 23:00 to 22:10 27.746 27.745 27.759 27.770 27.773 27.776
8/24/2019 22:00 to 21:10 27.782 27.772 27.756 27.765 27.762 27.762
8/24/2019 21:00 to 20:10 27.759 27.777 27.756 27.749 27.823 27.749
8/24/2019 20:00 to 19:10 27.769 27.799 27.818 27.810 27.777 27.818
8/24/2019 19:00 to 18:10 27.810 27.778 27.767 27.789 27.781 27.772
8/24/2019 18:00 to 17:10 27.766 27.749 27.748 27.743 27.757 27.741
8/24/2019 17:00 to 16:10 27.730 27.730 27.720 27.729 27.716 27.709
8/24/2019 16:00 to 15:10 27.707 27.704 27.701 27.692 27.692 27.694
8/24/2019 15:00 to 14:10 27.689 27.689 27.689 27.689 27.685 27.682
8/24/2019 14:00 to 13:10 27.684 27.694 27.694 27.679 27.693 27.692
8/24/2019 13:00 to 12:10 27.690 27.691 27.696 27.693 27.693 27.689
8/24/2019 12:00 to 11:10 27.690 27.696 27.689 27.698 27.697 27.697
8/24/2019 11:00 to 10:10 27.699 27.700 27.706 27.707 27.701 27.698
8/24/2019 10:00 to 9:10 27.703 27.694 27.705 27.709 27.708 27.698
8/24/2019 09:00 to 8:10 27.707 27.695 27.706 27.708 27.695 27.710
8/24/2019 08:00 to 7:10 27.705 27.702 27.712 27.707 27.707 27.705
8/24/2019 07:00 to 6:10 27.706 27.701 27.712 27.711 27.699 27.705
8/24/2019 06:00 to 5:10 27.706 27.711 27.708 27.710 27.719 27.713
8/24/2019 05:00 to 4:10 27.708 27.720 27.715 27.717 27.717 27.704
8/24/2019 04:00 to 3:10 27.717 27.712 27.710 27.712 27.717 27.715
8/24/2019 03:00 to 2:10 27.709 27.710 27.712 27.715 27.716 27.724
8/24/2019 02:00 to 1:10 27.719 27.737 27.737 27.742 27.747 27.745
8/24/2019 01:00 to 0:10 27.750 27.748 27.750 27.748 27.749 27.754

 

 

 

Conductivity [S/m]     6 entries per hour
Showing data from 8/25/2019 (11:10:00 Z) to 8/24/2019 (00:00:01 Z)
Previous Next [ Day | 3-Days | 7-Days ]
First Last
Prev [ Day | 3-Days | 7-Days ] Next
First Last

Start Time:     :
End Time:     :     
Time (in GMT) :00 :50 :40 :30 :20 :10
Previous Next [ Day | 3-Days | 7-Days ]
First Last
Prev [ Day | 3-Days | 7-Days ] Next
First Last


123 => good data
MM => data is determined as missing
-- => data not received/configured
Back to Top Back to Top
8/25/2019 12:00 to 11:10 -- -- -- -- -- 5.29668
8/25/2019 11:00 to 10:10 5.29724 5.29639 5.29693 5.29670 5.29583 5.29484
8/25/2019 10:00 to 9:10 5.29558 5.29494 5.29618 5.29558 5.29605 5.29545
8/25/2019 09:00 to 8:10 5.29583 5.29467 5.29489 5.29522 5.29540 5.29597
8/25/2019 08:00 to 7:10 5.29553 5.29544 5.29476 5.29553 5.29536 5.29447
8/25/2019 07:00 to 6:10 5.29612 5.29583 5.29574 5.29563 5.29657 5.29641
8/25/2019 06:00 to 5:10 5.29591 5.29505 5.29485 5.29584 5.29573 5.29620
8/25/2019 05:00 to 4:10 5.29670 5.29615 5.29750 5.29820 5.29725 5.29815
8/25/2019 04:00 to 3:10 5.29804 5.29854 5.29896 5.29956 5.29956 5.30026
8/25/2019 03:00 to 2:10 5.29992 5.30085 5.30031 5.30119 5.30198 5.30169
8/25/2019 02:00 to 1:10 5.30145 5.30202 5.30187 5.30098 5.30335 5.30395
8/25/2019 01:00 to 0:10 5.30332 5.30338 5.30226 5.30179 5.30215 5.30218
8/25/2019 00:00 to 23:10 5.30278 5.30299 5.30187 5.30210 5.30267 5.30350
8/24/2019 23:00 to 22:10 5.30309 5.30304 5.30483 5.30623 5.30678 5.30738
8/24/2019 22:00 to 21:10 5.30816 5.30731 5.30608 5.30707 5.30697 5.30715
8/24/2019 21:00 to 20:10 5.30640 5.30905 5.30611 5.30559 5.31711 5.30666
8/24/2019 20:00 to 19:10 5.31103 5.31509 5.31792 5.31721 5.31450 5.31915
8/24/2019 19:00 to 18:10 5.31880 5.31484 5.31455 5.31731 5.31666 5.31612
8/24/2019 18:00 to 17:10 5.31518 5.31307 5.31285 5.31226 5.31393 5.31215
8/24/2019 17:00 to 16:10 5.31106 5.31071 5.30996 5.31049 5.30934 5.30838
8/24/2019 16:00 to 15:10 5.30830 5.30819 5.30817 5.30719 5.30742 5.30801
8/24/2019 15:00 to 14:10 5.30772 5.30770 5.30780 5.30793 5.30752 5.30752
8/24/2019 14:00 to 13:10 5.30804 5.30879 5.30874 5.30754 5.30887 5.30866
8/24/2019 13:00 to 12:10 5.30848 5.30848 5.30895 5.30871 5.30892 5.30825
8/24/2019 12:00 to 11:10 5.30843 5.30892 5.30843 5.30895 5.30905 5.30887
8/24/2019 11:00 to 10:10 5.30874 5.30955 5.30960 5.30976 5.30926 5.30913
8/24/2019 10:00 to 9:10 5.30947 5.30896 5.30952 5.30981 5.30963 5.30864
8/24/2019 09:00 to 8:10 5.30945 5.30814 5.30916 5.30942 5.30842 5.30952
8/24/2019 08:00 to 7:10 5.30900 5.30892 5.30957 5.30900 5.30877 5.30865
8/24/2019 07:00 to 6:10 5.30856 5.30819 5.30926 5.30923 5.30786 5.30783
8/24/2019 06:00 to 5:10 5.30814 5.30877 5.30830 5.30832 5.30937 5.30858
8/24/2019 05:00 to 4:10 5.30840 5.30942 5.30882 5.30908 5.30911 5.30780
8/24/2019 04:00 to 3:10 5.30895 5.30845 5.30814 5.30866 5.30837 5.30780
8/24/2019 03:00 to 2:10 5.30684 5.30705 5.30733 5.30759 5.30718 5.30840
8/24/2019 02:00 to 1:10 5.30713 5.31082 5.31056 5.31197 5.31260 5.31244
8/24/2019 01:00 to 0:10 5.31280 5.31283 5.31293 5.31303 5.31304 5.31331

 

 

 

Salinity [psu]     6 entries per hour
Showing data from 8/25/2019 (11:10:00 Z) to 8/24/2019 (00:00:01 Z)
Previous Next [ Day | 3-Days | 7-Days ]
First Last
Prev [ Day | 3-Days | 7-Days ] Next
First Last

Start Time:     :
End Time:     :     
Time (in GMT) :00 :50 :40 :30 :20 :10
Previous Next [ Day | 3-Days | 7-Days ]
First Last
Prev [ Day | 3-Days | 7-Days ] Next
First Last


123 => good data
MM => data is determined as missing
-- => data not received/configured
Back to Top Back to Top
8/25/2019 12:00 to 11:10 -- -- -- -- -- 32.98
8/25/2019 11:00 to 10:10 32.98 32.98 32.97 32.97 32.97 32.97
8/25/2019 10:00 to 9:10 32.97 32.96 32.97 32.97 32.97 32.97
8/25/2019 09:00 to 8:10 32.97 32.97 32.96 32.96 32.96 32.96
8/25/2019 08:00 to 7:10 32.96 32.96 32.96 32.96 32.96 32.96
8/25/2019 07:00 to 6:10 32.96 32.96 32.96 32.96 32.96 32.96
8/25/2019 06:00 to 5:10 32.96 32.96 32.96 32.96 32.96 32.95
8/25/2019 05:00 to 4:10 32.95 32.95 32.95 32.95 32.95 32.95
8/25/2019 04:00 to 3:10 32.96 32.95 32.95 32.96 32.96 32.96
8/25/2019 03:00 to 2:10 32.95 32.96 32.96 32.96 32.96 32.96
8/25/2019 02:00 to 1:10 32.95 32.95 32.95 32.95 32.95 32.96
8/25/2019 01:00 to 0:10 32.96 32.95 32.95 32.95 32.95 32.95
8/25/2019 00:00 to 23:10 32.95 32.95 32.95 32.95 32.95 32.95
8/24/2019 23:00 to 22:10 32.95 32.95 32.95 32.95 32.95 32.96
8/24/2019 22:00 to 21:10 32.96 32.96 32.96 32.96 32.96 32.96
8/24/2019 21:00 to 20:10 32.96 32.97 32.96 32.96 32.99 32.97
8/24/2019 20:00 to 19:10 32.99 32.99 33.00 33.00 33.00 33.01
8/24/2019 19:00 to 18:10 33.01 33.01 33.01 33.02 33.02 33.02
8/24/2019 18:00 to 17:10 33.02 33.01 33.01 33.01 33.01 33.01
8/24/2019 17:00 to 16:10 33.01 33.01 33.01 33.01 33.01 33.01
8/24/2019 16:00 to 15:10 33.01 33.01 33.01 33.01 33.01 33.02
8/24/2019 15:00 to 14:10 33.02 33.02 33.02 33.02 33.02 33.02
8/24/2019 14:00 to 13:10 33.02 33.02 33.02 33.02 33.02 33.02
8/24/2019 13:00 to 12:10 33.02 33.02 33.02 33.02 33.02 33.02
8/24/2019 12:00 to 11:10 33.02 33.02 33.02 33.02 33.02 33.02
8/24/2019 11:00 to 10:10 33.02 33.02 33.02 33.02 33.02 33.02
8/24/2019 10:00 to 9:10 33.02 33.02 33.02 33.02 33.02 33.02
8/24/2019 09:00 to 8:10 33.02 33.02 33.02 33.02 33.02 33.02
8/24/2019 08:00 to 7:10 33.02 33.02 33.02 33.02 33.01 33.01
8/24/2019 07:00 to 6:10 33.01 33.01 33.01 33.01 33.01 33.01
8/24/2019 06:00 to 5:10 33.01 33.01 33.01 33.01 33.01 33.01
8/24/2019 05:00 to 4:10 33.01 33.01 33.01 33.01 33.01 33.01
8/24/2019 04:00 to 3:10 33.01 33.01 33.01 33.01 33.00 33.00
8/24/2019 03:00 to 2:10 33.00 33.00 33.00 33.00 33.00 33.00
8/24/2019 02:00 to 1:10 32.99 33.01 33.01 33.01 33.01 33.01
8/24/2019 01:00 to 0:10 33.01 33.01 33.01 33.01 33.01 33.01